sensor_id;sensor_type;location;lat;lon;timestamp;pressure;altitude;pressure_sealevel;temperature;humidity
51617;BME280;37697;52.588;13.394;2024-03-29T00:03:58;99312.05;;;8.18;72.53
51617;BME280;37697;52.588;13.394;2024-03-29T00:09:24;99316.27;;;8.16;73.19
51617;BME280;37697;52.588;13.394;2024-03-29T00:14:41;99322.34;;;8.09;73.07
51617;BME280;37697;52.588;13.394;2024-03-29T00:20:08;99345.95;;;8.09;73.77
51617;BME280;37697;52.588;13.394;2024-03-29T00:25:17;99363.54;;;8.11;75.15
51617;BME280;37697;52.588;13.394;2024-03-29T00:30:32;99349.84;;;8.05;76.82
51617;BME280;37697;52.588;13.394;2024-03-29T00:35:58;99353.67;;;7.98;77.33
51617;BME280;37697;52.588;13.394;2024-03-29T00:41:06;99350.63;;;7.91;78.13
51617;BME280;37697;52.588;13.394;2024-03-29T00:46:31;99359.48;;;7.87;78.18
51617;BME280;37697;52.588;13.394;2024-03-29T00:51:57;99369.55;;;7.85;78.30
51617;BME280;37697;52.588;13.394;2024-03-29T00:57:13;99379.77;;;7.85;78.62
51617;BME280;37697;52.588;13.394;2024-03-29T01:02:28;99377.55;;;7.89;78.30
51617;BME280;37697;52.588;13.394;2024-03-29T01:07:53;99383.90;;;7.88;78.17
51617;BME280;37697;52.588;13.394;2024-03-29T01:13:17;99376.69;;;7.81;78.20
51617;BME280;37697;52.588;13.394;2024-03-29T01:18:32;99375.02;;;7.74;78.22
51617;BME280;37697;52.588;13.394;2024-03-29T01:23:51;99378.85;;;7.64;78.55
51617;BME280;37697;52.588;13.394;2024-03-29T01:29:17;99384.61;;;7.52;79.15
51617;BME280;37697;52.588;13.394;2024-03-29T01:34:42;99381.38;;;7.42;79.93
51617;BME280;37697;52.588;13.394;2024-03-29T01:40:07;99379.07;;;7.34;80.46
51617;BME280;37697;52.588;13.394;2024-03-29T01:45:33;99385.27;;;7.27;80.94
51617;BME280;37697;52.588;13.394;2024-03-29T01:51:00;99384.23;;;7.16;81.37
51617;BME280;37697;52.588;13.394;2024-03-29T01:56:14;99392.40;;;7.08;82.11
51617;BME280;37697;52.588;13.394;2024-03-29T02:01:41;99393.48;;;7.00;82.71
51617;BME280;37697;52.588;13.394;2024-03-29T02:07:07;99393.42;;;6.93;82.76
51617;BME280;37697;52.588;13.394;2024-03-29T02:12:32;99393.26;;;6.87;82.75
51617;BME280;37697;52.588;13.394;2024-03-29T02:17:58;99400.58;;;6.80;83.35
51617;BME280;37697;52.588;13.394;2024-03-29T02:23:27;99404.47;;;6.75;83.89
51617;BME280;37697;52.588;13.394;2024-03-29T02:28:54;99393.36;;;6.70;83.68
51617;BME280;37697;52.588;13.394;2024-03-29T02:34:19;99397.50;;;6.66;83.72
51617;BME280;37697;52.588;13.394;2024-03-29T02:39:45;99401.73;;;6.61;83.53
51617;BME280;37697;52.588;13.394;2024-03-29T02:45:10;99404.20;;;6.54;83.63
51617;BME280;37697;52.588;13.394;2024-03-29T02:50:36;99415.70;;;6.51;83.92
51617;BME280;37697;52.588;13.394;2024-03-29T02:56:01;99420.37;;;6.48;84.11
51617;BME280;37697;52.588;13.394;2024-03-29T03:01:26;99413.55;;;6.44;83.84
51617;BME280;37697;52.588;13.394;2024-03-29T03:06:52;99411.45;;;6.38;83.93
51617;BME280;37697;52.588;13.394;2024-03-29T03:12:17;99419.26;;;6.33;84.02
51617;BME280;37697;52.588;13.394;2024-03-29T03:17:42;99429.79;;;6.30;84.32
51617;BME280;37697;52.588;13.394;2024-03-29T03:23:07;99438.98;;;6.26;84.35
51617;BME280;37697;52.588;13.394;2024-03-29T03:28:27;99438.74;;;6.22;84.42
51617;BME280;37697;52.588;13.394;2024-03-29T03:33:52;99437.96;;;6.18;84.27
51617;BME280;37697;52.588;13.394;2024-03-29T03:39:17;99452.80;;;6.17;84.22
51617;BME280;37697;52.588;13.394;2024-03-29T03:44:35;99454.39;;;6.11;84.20
51617;BME280;37697;52.588;13.394;2024-03-29T03:50:00;99461.83;;;6.09;84.16
51617;BME280;37697;52.588;13.394;2024-03-29T03:55:26;99454.10;;;6.06;84.20
51617;BME280;37697;52.588;13.394;2024-03-29T04:00:44;99445.16;;;6.05;84.16
51617;BME280;37697;52.588;13.394;2024-03-29T04:06:05;99431.76;;;6.03;83.93
51617;BME280;37697;52.588;13.394;2024-03-29T04:11:31;99426.27;;;6.01;83.89
51617;BME280;37697;52.588;13.394;2024-03-29T04:16:56;99431.59;;;6.00;83.52
51617;BME280;37697;52.588;13.394;2024-03-29T04:22:21;99435.45;;;5.99;83.54
51617;BME280;37697;52.588;13.394;2024-03-29T04:27:38;99437.54;;;5.95;83.72
51617;BME280;37697;52.588;13.394;2024-03-29T04:32:56;99434.74;;;5.92;83.51
51617;BME280;37697;52.588;13.394;2024-03-29T04:38:12;99435.64;;;5.88;83.44
51617;BME280;37697;52.588;13.394;2024-03-29T04:43:29;99440.66;;;5.86;83.49
51617;BME280;37697;52.588;13.394;2024-03-29T04:48:54;99439.58;;;5.82;83.26
51617;BME280;37697;52.588;13.394;2024-03-29T04:54:04;99439.34;;;5.80;83.32
51617;BME280;37697;52.588;13.394;2024-03-29T04:59:24;99427.98;;;5.80;83.52
51617;BME280;37697;52.588;13.394;2024-03-29T05:04:49;99430.53;;;5.78;83.75
51617;BME280;37697;52.588;13.394;2024-03-29T05:10:09;99428.88;;;5.76;83.67
51617;BME280;37697;52.588;13.394;2024-03-29T05:15:19;99438.42;;;5.77;83.74
51617;BME280;37697;52.588;13.394;2024-03-29T05:20:45;99440.48;;;5.78;83.66
51617;BME280;37697;52.588;13.394;2024-03-29T05:26:13;99455.64;;;5.82;83.59
51617;BME280;37697;52.588;13.394;2024-03-29T05:31:39;99467.70;;;5.89;83.36
51617;BME280;37697;52.588;13.394;2024-03-29T05:36:56;99463.34;;;5.93;83.28
51617;BME280;37697;52.588;13.394;2024-03-29T05:42:14;99475.85;;;5.99;83.20
51617;BME280;37697;52.588;13.394;2024-03-29T05:47:39;99442.88;;;6.02;83.03
51617;BME280;37697;52.588;13.394;2024-03-29T05:53:05;99436.95;;;6.08;82.78
51617;BME280;37697;52.588;13.394;2024-03-29T05:58:30;99438.20;;;6.14;82.81
51617;BME280;37697;52.588;13.394;2024-03-29T06:03:55;99455.17;;;6.20;82.50
51617;BME280;37697;52.588;13.394;2024-03-29T06:09:20;99449.01;;;6.28;82.35
51617;BME280;37697;52.588;13.394;2024-03-29T06:14:46;99465.34;;;6.37;82.11
51617;BME280;37697;52.588;13.394;2024-03-29T06:20:10;99478.33;;;6.49;81.99
51617;BME280;37697;52.588;13.394;2024-03-29T06:25:35;99483.23;;;6.60;81.69
51617;BME280;37697;52.588;13.394;2024-03-29T06:31:00;99491.15;;;6.70;81.31
51617;BME280;37697;52.588;13.394;2024-03-29T06:36:26;99499.99;;;6.81;81.20
51617;BME280;37697;52.588;13.394;2024-03-29T06:41:51;99501.45;;;6.92;80.55
51617;BME280;37697;52.588;13.394;2024-03-29T06:47:17;99506.83;;;7.08;80.15
51617;BME280;37697;52.588;13.394;2024-03-29T06:52:42;99516.20;;;7.24;79.61
51617;BME280;37697;52.588;13.394;2024-03-29T06:58:07;99524.50;;;7.43;79.02
51617;BME280;37697;52.588;13.394;2024-03-29T07:03:15;99533.52;;;7.63;78.38
51617;BME280;37697;52.588;13.394;2024-03-29T07:08:23;99541.41;;;7.79;77.97
51617;BME280;37697;52.588;13.394;2024-03-29T07:13:49;99527.06;;;7.95;77.58
51617;BME280;37697;52.588;13.394;2024-03-29T07:19:13;99520.35;;;8.18;77.18
51617;BME280;37697;52.588;13.394;2024-03-29T07:24:38;99550.19;;;8.39;75.79
51617;BME280;37697;52.588;13.394;2024-03-29T07:30:05;99577.96;;;8.53;75.58
51617;BME280;37697;52.588;13.394;2024-03-29T07:35:31;99575.75;;;8.61;74.78
51617;BME280;37697;52.588;13.394;2024-03-29T07:40:46;99569.50;;;8.66;74.33
51617;BME280;37697;52.588;13.394;2024-03-29T07:46:04;99583.19;;;8.77;73.47
51617;BME280;37697;52.588;13.394;2024-03-29T07:51:30;99586.35;;;8.86;73.04
51617;BME280;37697;52.588;13.394;2024-03-29T07:56:55;99579.92;;;8.90;72.89
51617;BME280;37697;52.588;13.394;2024-03-29T08:02:20;99588.17;;;8.93;72.28
51617;BME280;37697;52.588;13.394;2024-03-29T08:07:46;99602.92;;;9.06;72.20
51617;BME280;37697;52.588;13.394;2024-03-29T08:13:11;99619.00;;;9.18;72.42
51617;BME280;37697;52.588;13.394;2024-03-29T08:18:36;99610.84;;;9.26;71.88
51617;BME280;37697;52.588;13.394;2024-03-29T08:24:02;99601.82;;;9.37;71.99
51617;BME280;37697;52.588;13.394;2024-03-29T08:29:27;99616.78;;;9.45;72.05
51617;BME280;37697;52.588;13.394;2024-03-29T08:34:52;99610.27;;;9.54;71.87
51617;BME280;37697;52.588;13.394;2024-03-29T08:40:09;99579.66;;;9.57;72.30
51617;BME280;37697;52.588;13.394;2024-03-29T08:45:34;99553.69;;;9.67;72.83
51617;BME280;37697;52.588;13.394;2024-03-29T08:51:00;99552.23;;;9.81;73.27
51617;BME280;37697;52.588;13.394;2024-03-29T08:56:25;99572.84;;;9.98;73.12
51617;BME280;37697;52.588;13.394;2024-03-29T09:01:50;99570.32;;;10.11;72.85
51617;BME280;37697;52.588;13.394;2024-03-29T09:07:16;99560.33;;;10.28;72.71
51617;BME280;37697;52.588;13.394;2024-03-29T09:12:34;99570.27;;;10.46;72.24
51617;BME280;37697;52.588;13.394;2024-03-29T09:17:42;99579.60;;;10.68;71.74
51617;BME280;37697;52.588;13.394;2024-03-29T09:23:08;99584.47;;;10.88;71.69
51617;BME280;37697;52.588;13.394;2024-03-29T09:28:24;99587.67;;;11.05;71.22
51617;BME280;37697;52.588;13.394;2024-03-29T09:33:50;99585.33;;;11.20;70.58
51617;BME280;37697;52.588;13.394;2024-03-29T09:39:02;99581.19;;;11.32;69.32
51617;BME280;37697;52.588;13.394;2024-03-29T09:44:30;99586.54;;;11.44;68.41
51617;BME280;37697;52.588;13.394;2024-03-29T09:49:39;99587.08;;;11.57;68.40
51617;BME280;37697;52.588;13.394;2024-03-29T09:54:56;99597.33;;;11.68;67.44
51617;BME280;37697;52.588;13.394;2024-03-29T10:00:14;99595.70;;;11.84;66.73
51617;BME280;37697;52.588;13.394;2024-03-29T10:05:24;99587.12;;;11.87;65.88
51617;BME280;37697;52.588;13.394;2024-03-29T10:10:32;99587.98;;;11.89;65.44
51617;BME280;37697;52.588;13.394;2024-03-29T10:15:40;99590.55;;;11.96;65.01
51617;BME280;37697;52.588;13.394;2024-03-29T10:21:00;99586.85;;;12.01;64.09
51617;BME280;37697;52.588;13.394;2024-03-29T10:26:24;99575.85;;;11.93;63.84
51617;BME280;37697;52.588;13.394;2024-03-29T10:31:50;99563.23;;;11.82;64.89
51617;BME280;37697;52.588;13.394;2024-03-29T10:37:16;99554.55;;;11.70;65.43
51617;BME280;37697;52.588;13.394;2024-03-29T10:42:43;99551.63;;;11.59;66.16
51617;BME280;37697;52.588;13.394;2024-03-29T10:48:10;99542.14;;;11.51;66.89
51617;BME280;37697;52.588;13.394;2024-03-29T10:53:37;99547.96;;;11.49;67.53
51617;BME280;37697;52.588;13.394;2024-03-29T10:59:01;99551.02;;;11.51;68.13
51617;BME280;37697;52.588;13.394;2024-03-29T11:04:26;99543.75;;;11.52;69.27
51617;BME280;37697;52.588;13.394;2024-03-29T11:09:58;99529.15;;;11.56;69.63
51617;BME280;37697;52.588;13.394;2024-03-29T11:15:29;99519.17;;;11.70;69.83
51617;BME280;37697;52.588;13.394;2024-03-29T11:20:55;99506.34;;;11.91;69.82
51617;BME280;37697;52.588;13.394;2024-03-29T11:26:11;99499.79;;;12.09;69.67
51617;BME280;37697;52.588;13.394;2024-03-29T11:31:23;99484.94;;;12.16;68.61
51617;BME280;37697;52.588;13.394;2024-03-29T11:36:31;99473.70;;;12.18;68.78
51617;BME280;37697;52.588;13.394;2024-03-29T11:42:02;99474.03;;;12.20;68.57
51617;BME280;37697;52.588;13.394;2024-03-29T11:47:10;99467.13;;;12.24;68.69
51617;BME280;37697;52.588;13.394;2024-03-29T11:52:28;99457.63;;;12.32;68.61
51617;BME280;37697;52.588;13.394;2024-03-29T11:57:53;99468.89;;;12.42;68.66
51617;BME280;37697;52.588;13.394;2024-03-29T12:03:01;99471.73;;;12.52;69.32
51617;BME280;37697;52.588;13.394;2024-03-29T12:08:18;99473.34;;;12.56;69.48
51617;BME280;37697;52.588;13.394;2024-03-29T12:13:34;99474.52;;;12.53;69.14
51617;BME280;37697;52.588;13.394;2024-03-29T12:18:39;99474.50;;;12.42;69.81
51617;BME280;37697;52.588;13.394;2024-03-29T12:24:05;99471.25;;;12.39;70.02
51617;BME280;37697;52.588;13.394;2024-03-29T12:29:31;99474.99;;;12.35;69.71
51617;BME280;37697;52.588;13.394;2024-03-29T12:35:08;99472.17;;;12.35;70.43
51617;BME280;37697;52.588;13.394;2024-03-29T12:40:34;99443.54;;;12.54;70.14
51617;BME280;37697;52.588;13.394;2024-03-29T12:46:02;99435.11;;;12.84;69.32
51617;BME280;37697;52.588;13.394;2024-03-29T12:51:27;99423.17;;;13.33;68.97
51617;BME280;37697;52.588;13.394;2024-03-29T12:56:53;99421.36;;;13.79;67.43
51617;BME280;37697;52.588;13.394;2024-03-29T13:02:19;99440.92;;;13.99;65.47
51617;BME280;37697;52.588;13.394;2024-03-29T13:07:44;99444.85;;;14.05;64.92
51617;BME280;37697;52.588;13.394;2024-03-29T13:13:09;99439.08;;;14.08;64.38
51617;BME280;37697;52.588;13.394;2024-03-29T13:18:35;99427.27;;;14.10;62.18
51617;BME280;37697;52.588;13.394;2024-03-29T13:24:00;99412.53;;;14.02;59.25
51617;BME280;37697;52.588;13.394;2024-03-29T13:29:26;99408.13;;;13.96;58.48
51617;BME280;37697;52.588;13.394;2024-03-29T13:34:51;99399.33;;;13.99;57.42
51617;BME280;37697;52.588;13.394;2024-03-29T13:40:10;99395.63;;;14.11;57.52
51617;BME280;37697;52.588;13.394;2024-03-29T13:45:36;99377.80;;;14.33;56.51
51617;BME280;37697;52.588;13.394;2024-03-29T13:51:01;99397.77;;;14.59;56.11
51617;BME280;37697;52.588;13.394;2024-03-29T13:56:09;99386.27;;;14.69;55.74
51617;BME280;37697;52.588;13.394;2024-03-29T14:01:36;99385.95;;;15.00;54.66
51617;BME280;37697;52.588;13.394;2024-03-29T14:07:01;99373.76;;;15.25;54.69
51617;BME280;37697;52.588;13.394;2024-03-29T14:12:27;99390.36;;;15.58;53.24
51617;BME280;37697;52.588;13.394;2024-03-29T14:17:53;99398.20;;;15.64;53.42
51617;BME280;37697;52.588;13.394;2024-03-29T14:23:18;99395.33;;;15.94;51.71
51617;BME280;37697;52.588;13.394;2024-03-29T14:28:27;99402.95;;;16.14;51.07
51617;BME280;37697;52.588;13.394;2024-03-29T14:33:35;99384.50;;;16.17;52.05
51617;BME280;37697;52.588;13.394;2024-03-29T14:39:00;99358.13;;;16.19;52.40
51617;BME280;37697;52.588;13.394;2024-03-29T14:44:16;99347.59;;;16.10;51.41
51617;BME280;37697;52.588;13.394;2024-03-29T14:49:42;99366.98;;;15.92;51.36
51617;BME280;37697;52.588;13.394;2024-03-29T14:55:07;99348.02;;;15.64;52.32
51617;BME280;37697;52.588;13.394;2024-03-29T15:00:25;99349.77;;;15.50;53.36
51617;BME280;37697;52.588;13.394;2024-03-29T15:05:51;99363.15;;;15.40;54.03
51617;BME280;37697;52.588;13.394;2024-03-29T15:10:59;99357.64;;;15.29;54.53
51617;BME280;37697;52.588;13.394;2024-03-29T15:16:13;99372.64;;;15.25;55.31
51617;BME280;37697;52.588;13.394;2024-03-29T15:21:33;99370.80;;;15.24;55.95
51617;BME280;37697;52.588;13.394;2024-03-29T15:26:58;99365.87;;;15.15;56.25
51617;BME280;37697;52.588;13.394;2024-03-29T15:32:24;99360.92;;;15.12;56.62
51617;BME280;37697;52.588;13.394;2024-03-29T15:37:50;99362.86;;;15.06;57.17
51617;BME280;37697;52.588;13.394;2024-03-29T15:43:15;99362.95;;;15.02;57.76
51617;BME280;37697;52.588;13.394;2024-03-29T15:48:41;99369.61;;;15.03;57.76
51617;BME280;37697;52.588;13.394;2024-03-29T15:54:06;99371.65;;;14.98;58.26
51617;BME280;37697;52.588;13.394;2024-03-29T15:59:31;99371.31;;;14.93;58.70
51617;BME280;37697;52.588;13.394;2024-03-29T16:04:56;99398.36;;;14.78;58.56
51617;BME280;37697;52.588;13.394;2024-03-29T16:10:22;99396.44;;;14.70;59.23
51617;BME280;37697;52.588;13.394;2024-03-29T16:15:47;99396.18;;;14.62;59.35
51617;BME280;37697;52.588;13.394;2024-03-29T16:21:13;99420.55;;;14.52;59.85
51617;BME280;37697;52.588;13.394;2024-03-29T16:26:22;99424.38;;;14.42;60.56
51617;BME280;37697;52.588;13.394;2024-03-29T16:31:30;99409.92;;;14.34;60.94
51617;BME280;37697;52.588;13.394;2024-03-29T16:36:43;99408.52;;;14.27;61.52
51617;BME280;37697;52.588;13.394;2024-03-29T16:41:51;99416.33;;;14.19;62.06
51617;BME280;37697;52.588;13.394;2024-03-29T16:47:07;99397.52;;;14.13;62.61
51617;BME280;37697;52.588;13.394;2024-03-29T16:52:33;99408.55;;;14.11;63.12
51617;BME280;37697;52.588;13.394;2024-03-29T16:57:43;99414.44;;;14.10;63.62
51617;BME280;37697;52.588;13.394;2024-03-29T17:02:57;99416.23;;;14.05;63.97
51617;BME280;37697;52.588;13.394;2024-03-29T17:08:22;99418.49;;;13.97;64.54
51617;BME280;37697;52.588;13.394;2024-03-29T17:13:31;99425.48;;;13.89;64.95
51617;BME280;37697;52.588;13.394;2024-03-29T17:18:44;99430.63;;;13.82;65.64
51617;BME280;37697;52.588;13.394;2024-03-29T17:23:51;99426.05;;;13.77;66.10
51617;BME280;37697;52.588;13.394;2024-03-29T17:28:59;99433.70;;;13.72;66.45
51617;BME280;37697;52.588;13.394;2024-03-29T17:34:08;99434.58;;;13.68;66.69
51617;BME280;37697;52.588;13.394;2024-03-29T17:39:17;99427.38;;;13.60;67.19
51617;BME280;37697;52.588;13.394;2024-03-29T17:44:27;99446.14;;;13.53;67.68
51617;BME280;37697;52.588;13.394;2024-03-29T17:49:41;99460.50;;;13.46;68.07
51617;BME280;37697;52.588;13.394;2024-03-29T17:54:48;99454.83;;;13.38;68.74
51617;BME280;37697;52.588;13.394;2024-03-29T17:59:53;99464.38;;;13.32;69.34
51617;BME280;37697;52.588;13.394;2024-03-29T18:05:01;99472.32;;;13.26;69.95
51617;BME280;37697;52.588;13.394;2024-03-29T18:10:19;99472.84;;;13.22;70.51
51617;BME280;37697;52.588;13.394;2024-03-29T18:15:28;99491.61;;;13.18;71.05
51617;BME280;37697;52.588;13.394;2024-03-29T18:20:33;99493.19;;;13.15;71.21
51617;BME280;37697;52.588;13.394;2024-03-29T18:25:58;99507.58;;;13.13;71.72
51617;BME280;37697;52.588;13.394;2024-03-29T18:31:24;99517.96;;;13.09;71.99
51617;BME280;37697;52.588;13.394;2024-03-29T18:36:49;99518.93;;;13.07;72.24
51617;BME280;37697;52.588;13.394;2024-03-29T18:42:14;99543.52;;;13.03;72.81
51617;BME280;37697;52.588;13.394;2024-03-29T18:47:40;99554.59;;;12.98;73.38
51617;BME280;37697;52.588;13.394;2024-03-29T18:53:05;99557.89;;;12.97;74.13
51617;BME280;37697;52.588;13.394;2024-03-29T18:58:31;99564.91;;;12.95;74.01
51617;BME280;37697;52.588;13.394;2024-03-29T19:03:56;99560.56;;;12.92;74.24
51617;BME280;37697;52.588;13.394;2024-03-29T19:09:20;99562.90;;;12.90;74.39
51617;BME280;37697;52.588;13.394;2024-03-29T19:14:46;99559.35;;;12.88;74.55
51617;BME280;37697;52.588;13.394;2024-03-29T19:20:12;99553.06;;;12.87;74.82
51617;BME280;37697;52.588;13.394;2024-03-29T19:25:38;99550.82;;;12.83;75.05
51617;BME280;37697;52.588;13.394;2024-03-29T19:30:53;99555.63;;;12.78;75.23
51617;BME280;37697;52.588;13.394;2024-03-29T19:36:17;99562.23;;;12.72;75.63
51617;BME280;37697;52.588;13.394;2024-03-29T19:41:42;99555.64;;;12.68;75.93
51617;BME280;37697;52.588;13.394;2024-03-29T19:46:51;99566.23;;;12.66;76.12
51617;BME280;37697;52.588;13.394;2024-03-29T19:51:59;99567.98;;;12.64;76.30
51617;BME280;37697;52.588;13.394;2024-03-29T19:57:17;99570.55;;;12.63;76.57
51617;BME280;37697;52.588;13.394;2024-03-29T20:02:43;99578.43;;;12.60;76.45
51617;BME280;37697;52.588;13.394;2024-03-29T20:07:58;99596.48;;;12.58;76.79
51617;BME280;37697;52.588;13.394;2024-03-29T20:13:12;99599.27;;;12.56;77.06
51617;BME280;37697;52.588;13.394;2024-03-29T20:18:21;99608.32;;;12.55;77.28
51617;BME280;37697;52.588;13.394;2024-03-29T20:23:26;99613.75;;;12.52;77.41
51617;BME280;37697;52.588;13.394;2024-03-29T20:28:34;99617.72;;;12.50;77.93
51617;BME280;37697;52.588;13.394;2024-03-29T20:33:42;99612.30;;;12.48;78.25
51617;BME280;37697;52.588;13.394;2024-03-29T20:39:08;99608.98;;;12.44;78.69
51617;BME280;37697;52.588;13.394;2024-03-29T20:44:22;99601.91;;;12.42;78.77
51617;BME280;37697;52.588;13.394;2024-03-29T20:49:28;99608.82;;;12.39;78.94
51617;BME280;37697;52.588;13.394;2024-03-29T20:54:47;99621.83;;;12.36;79.25
51617;BME280;37697;52.588;13.394;2024-03-29T20:59:55;99618.05;;;12.31;79.39
51617;BME280;37697;52.588;13.394;2024-03-29T21:05:04;99609.27;;;12.29;79.56
51617;BME280;37697;52.588;13.394;2024-03-29T21:10:29;99595.02;;;12.25;79.84
51617;BME280;37697;52.588;13.394;2024-03-29T21:15:36;99600.15;;;12.23;79.97
51617;BME280;37697;52.588;13.394;2024-03-29T21:20:45;99597.38;;;12.22;80.25
51617;BME280;37697;52.588;13.394;2024-03-29T21:26:10;99597.51;;;12.20;80.38
51617;BME280;37697;52.588;13.394;2024-03-29T21:31:34;99589.92;;;12.14;80.69
51617;BME280;37697;52.588;13.394;2024-03-29T21:36:45;99589.73;;;12.00;81.08
51617;BME280;37697;52.588;13.394;2024-03-29T21:41:53;99596.79;;;11.91;81.36
51617;BME280;37697;52.588;13.394;2024-03-29T21:47:18;99603.81;;;11.86;81.63
51617;BME280;37697;52.588;13.394;2024-03-29T21:52:28;99602.94;;;11.82;81.89
51617;BME280;37697;52.588;13.394;2024-03-29T21:57:47;99609.04;;;11.76;82.05
51617;BME280;37697;52.588;13.394;2024-03-29T22:03:01;99614.91;;;11.70;82.40
51617;BME280;37697;52.588;13.394;2024-03-29T22:08:27;99614.41;;;11.63;82.77
51617;BME280;37697;52.588;13.394;2024-03-29T22:13:42;99615.30;;;11.53;83.23
51617;BME280;37697;52.588;13.394;2024-03-29T22:18:59;99631.93;;;11.45;83.70
51617;BME280;37697;52.588;13.394;2024-03-29T22:24:24;99643.93;;;11.37;84.25
51617;BME280;37697;52.588;13.394;2024-03-29T22:29:49;99653.87;;;11.35;84.36
51617;BME280;37697;52.588;13.394;2024-03-29T22:35:08;99660.33;;;11.33;84.43
51617;BME280;37697;52.588;13.394;2024-03-29T22:40:33;99652.54;;;11.30;84.50
51617;BME280;37697;52.588;13.394;2024-03-29T22:45:51;99655.83;;;11.27;84.80
51617;BME280;37697;52.588;13.394;2024-03-29T22:51:17;99669.60;;;11.23;84.92
51617;BME280;37697;52.588;13.394;2024-03-29T22:56:42;99667.23;;;11.17;85.27
51617;BME280;37697;52.588;13.394;2024-03-29T23:02:08;99658.46;;;11.10;85.69
51617;BME280;37697;52.588;13.394;2024-03-29T23:07:33;99665.20;;;11.05;86.23
51617;BME280;37697;52.588;13.394;2024-03-29T23:12:58;99665.56;;;10.98;86.66
51617;BME280;37697;52.588;13.394;2024-03-29T23:18:24;99661.29;;;10.92;86.94
51617;BME280;37697;52.588;13.394;2024-03-29T23:23:51;99657.60;;;10.89;86.93
51617;BME280;37697;52.588;13.394;2024-03-29T23:29:16;99648.55;;;10.83;87.23
51617;BME280;37697;52.588;13.394;2024-03-29T23:34:31;99655.52;;;10.79;87.59
51617;BME280;37697;52.588;13.394;2024-03-29T23:39:57;99658.30;;;10.78;87.46
51617;BME280;37697;52.588;13.394;2024-03-29T23:45:22;99651.21;;;10.76;87.83
51617;BME280;37697;52.588;13.394;2024-03-29T23:50:53;99647.17;;;10.74;88.48
51617;BME280;37697;52.588;13.394;2024-03-29T23:56:18;99648.93;;;10.73;88.59
